createdAt,value
2022-11-29T00:01:17.699Z,6.20
2022-11-29T00:03:45.259Z,6.20
2022-11-29T00:06:18.500Z,6.20
2022-11-29T00:08:46.367Z,6.20
2022-11-29T00:11:41.244Z,6.20
2022-11-29T00:14:11.682Z,6.20
2022-11-29T00:16:41.096Z,6.20
2022-11-29T00:19:10.367Z,6.20
2022-11-29T00:21:37.553Z,6.20
2022-11-29T00:24:04.976Z,6.20
2022-11-29T00:26:32.154Z,6.10
2022-11-29T00:28:59.260Z,6.10
2022-11-29T00:31:32.967Z,6.20
2022-11-29T00:34:02.561Z,6.10
2022-11-29T00:36:30.057Z,6.10
2022-11-29T00:38:57.502Z,6.10
2022-11-29T00:41:25.175Z,6.10
2022-11-29T00:43:52.224Z,6.10
2022-11-29T00:46:19.548Z,6.10
2022-11-29T00:48:46.631Z,6.10
2022-11-29T00:51:13.881Z,6.10
2022-11-29T00:53:40.972Z,6.10
2022-11-29T00:56:08.362Z,6.10
2022-11-29T00:58:36.326Z,6.10
2022-11-29T01:01:04.266Z,6.10
2022-11-29T01:03:31.893Z,6.10
2022-11-29T01:06:08.142Z,6.10
2022-11-29T01:08:35.444Z,6.10
2022-11-29T01:11:08.717Z,6.00
2022-11-29T01:13:36.165Z,6.10
2022-11-29T01:16:04.892Z,6.10
2022-11-29T01:18:32.707Z,6.10
2022-11-29T01:21:07.634Z,6.00
2022-11-29T01:23:35.929Z,6.10
2022-11-29T01:26:12.993Z,6.10
2022-11-29T01:28:40.933Z,6.00
2022-11-29T01:31:09.008Z,6.00
2022-11-29T01:33:36.878Z,6.00
2022-11-29T01:36:05.703Z,6.00
2022-11-29T01:38:33.711Z,6.00
2022-11-29T01:41:11.182Z,6.00
2022-11-29T01:44:04.922Z,6.00
2022-11-29T01:46:38.447Z,6.00
2022-11-29T01:49:19.840Z,6.00
2022-11-29T01:51:54.173Z,6.00
2022-11-29T01:54:22.236Z,6.00
2022-11-29T01:56:51.652Z,6.00
2022-11-29T01:59:24.994Z,6.00
2022-11-29T02:01:52.961Z,6.00
2022-11-29T02:04:20.407Z,6.00
2022-11-29T02:06:47.706Z,6.00
2022-11-29T02:09:23.552Z,6.00
2022-11-29T02:12:17.324Z,6.00
2022-11-29T02:15:02.420Z,6.00
2022-11-29T02:17:35.537Z,6.00
2022-11-29T02:20:17.776Z,6.00
2022-11-29T02:22:54.051Z,6.00
2022-11-29T02:26:03.206Z,6.00
2022-11-29T02:29:00.078Z,6.00
2022-11-29T02:32:04.359Z,6.00
2022-11-29T02:34:46.363Z,6.00
2022-11-29T02:37:22.730Z,5.90
2022-11-29T02:40:10.856Z,5.90
2022-11-29T02:43:08.968Z,5.90
2022-11-29T02:46:12.794Z,5.90
2022-11-29T02:49:07.036Z,5.90
2022-11-29T02:52:13.011Z,5.90
2022-11-29T02:55:04.001Z,5.90
2022-11-29T02:57:42.429Z,5.90
2022-11-29T03:00:20.239Z,5.90
2022-11-29T03:03:22.670Z,5.90
2022-11-29T03:06:07.629Z,5.90
2022-11-29T03:08:41.101Z,5.90
2022-11-29T03:11:38.187Z,5.90
2022-11-29T03:14:17.550Z,5.90
2022-11-29T03:17:17.230Z,5.90
2022-11-29T03:20:18.780Z,5.90
2022-11-29T03:23:04.423Z,5.90
2022-11-29T03:25:43.914Z,5.80
2022-11-29T03:28:19.971Z,5.90
2022-11-29T03:30:59.044Z,5.80
2022-11-29T03:33:51.966Z,5.90
2022-11-29T03:36:37.106Z,5.90
2022-11-29T03:39:09.709Z,5.80
2022-11-29T03:42:08.223Z,5.90
2022-11-29T03:44:43.061Z,5.80
2022-11-29T03:47:16.727Z,5.80
2022-11-29T03:50:06.495Z,5.80
2022-11-29T03:52:55.105Z,5.80
2022-11-29T03:55:22.236Z,5.80
2022-11-29T03:58:07.994Z,5.80
2022-11-29T04:01:02.633Z,5.80
2022-11-29T04:03:51.402Z,5.80
2022-11-29T04:06:24.724Z,5.80
2022-11-29T04:09:21.044Z,5.80
2022-11-29T04:12:19.480Z,5.80
2022-11-29T04:15:23.857Z,5.80
2022-11-29T04:18:25.138Z,5.80
2022-11-29T04:21:01.846Z,5.80
2022-11-29T04:24:06.386Z,5.80
2022-11-29T04:27:11.222Z,5.80
2022-11-29T04:30:08.528Z,5.80
2022-11-29T04:33:29.644Z,5.80
2022-11-29T04:35:59.735Z,5.80
2022-11-29T04:38:35.661Z,5.80
2022-11-29T04:41:14.980Z,5.80
2022-11-29T04:43:45.035Z,5.80
2022-11-29T04:46:43.724Z,5.80
2022-11-29T04:49:38.471Z,5.80
2022-11-29T04:52:17.552Z,5.80
2022-11-29T04:55:00.917Z,5.80
2022-11-29T04:57:39.567Z,5.80
2022-11-29T05:00:14.606Z,5.80
2022-11-29T05:02:50.495Z,5.80
2022-11-29T05:05:36.091Z,5.80
2022-11-29T05:08:25.148Z,5.80
2022-11-29T05:11:13.591Z,5.80
2022-11-29T05:13:49.588Z,5.80
2022-11-29T05:16:38.301Z,5.80
2022-11-29T05:19:34.077Z,5.80
2022-11-29T05:22:35.144Z,5.80
2022-11-29T05:25:35.670Z,5.70
2022-11-29T05:28:49.807Z,5.80
2022-11-29T05:31:52.514Z,5.80
2022-11-29T05:34:30.267Z,5.80
2022-11-29T05:37:42.568Z,5.80
2022-11-29T05:40:21.901Z,5.70
2022-11-29T05:43:26.463Z,5.70
2022-11-29T05:46:01.362Z,5.70
2022-11-29T05:48:32.118Z,5.70
2022-11-29T05:51:33.927Z,5.70
2022-11-29T05:54:12.927Z,5.70
2022-11-29T05:56:55.283Z,5.70
2022-11-29T05:59:26.459Z,5.60
2022-11-29T06:01:53.778Z,5.60
2022-11-29T06:04:29.423Z,5.60
2022-11-29T06:07:34.200Z,5.60
2022-11-29T06:10:04.410Z,5.70
2022-11-29T06:12:36.167Z,5.60
2022-11-29T06:15:30.271Z,5.70
2022-11-29T06:18:36.869Z,5.60
2022-11-29T06:21:30.891Z,5.70
2022-11-29T06:24:20.448Z,5.60
2022-11-29T06:27:08.917Z,5.60
2022-11-29T06:29:42.491Z,5.60
2022-11-29T06:32:25.548Z,5.70
2022-11-29T06:35:02.510Z,5.70
2022-11-29T06:37:43.732Z,5.60
2022-11-29T06:40:14.405Z,5.70
2022-11-29T06:42:41.900Z,5.60
2022-11-29T06:45:15.743Z,5.60
2022-11-29T06:47:45.129Z,5.60
2022-11-29T06:50:34.586Z,5.60
2022-11-29T06:53:33.393Z,5.60
2022-11-29T06:56:15.458Z,5.60
2022-11-29T06:59:03.482Z,5.60
2022-11-29T07:01:41.811Z,5.60
2022-11-29T07:04:27.389Z,5.60
2022-11-29T07:06:54.795Z,5.60
2022-11-29T07:09:28.736Z,5.60
2022-11-29T07:11:56.334Z,5.60
2022-11-29T07:14:23.759Z,5.60
2022-11-29T07:17:27.984Z,5.60
2022-11-29T07:20:33.120Z,5.60
2022-11-29T07:23:30.228Z,5.60
2022-11-29T07:26:23.605Z,5.60
2022-11-29T07:29:08.738Z,5.60
2022-11-29T07:32:11.061Z,5.60
2022-11-29T07:35:10.405Z,5.60
2022-11-29T07:37:58.000Z,5.60
2022-11-29T07:40:50.409Z,5.60
2022-11-29T07:43:35.364Z,5.60
2022-11-29T07:46:02.477Z,5.60
2022-11-29T07:48:29.697Z,5.60
2022-11-29T07:50:57.171Z,5.60
2022-11-29T07:53:24.555Z,5.60
2022-11-29T07:55:52.198Z,5.60
2022-11-29T07:58:19.659Z,5.60
2022-11-29T08:00:46.904Z,5.60
2022-11-29T08:03:14.373Z,5.60
2022-11-29T08:05:46.365Z,5.60
2022-11-29T08:08:13.664Z,5.60
2022-11-29T08:10:40.727Z,5.60
2022-11-29T08:13:07.826Z,5.60
2022-11-29T08:15:35.223Z,5.60
2022-11-29T08:18:03.281Z,5.60
2022-11-29T08:20:30.462Z,5.60
2022-11-29T08:22:59.842Z,5.60
2022-11-29T08:25:27.755Z,5.60
2022-11-29T08:27:55.550Z,5.60
2022-11-29T08:30:23.399Z,5.60
2022-11-29T08:32:51.954Z,5.60
2022-11-29T08:35:21.384Z,5.60
2022-11-29T08:37:49.221Z,5.60
2022-11-29T08:40:17.209Z,5.60
2022-11-29T08:42:44.475Z,5.60
2022-11-29T08:45:12.067Z,5.60
2022-11-29T08:47:42.236Z,5.60
2022-11-29T08:50:15.633Z,5.60
2022-11-29T08:53:06.670Z,5.60
2022-11-29T08:55:37.805Z,5.60
2022-11-29T08:58:08.054Z,5.60
2022-11-29T09:00:35.682Z,5.60
2022-11-29T09:03:22.743Z,5.60
2022-11-29T09:05:50.345Z,5.60
2022-11-29T09:08:17.709Z,5.60
2022-11-29T09:10:44.928Z,5.60
2022-11-29T09:13:12.605Z,5.60
2022-11-29T09:15:42.010Z,5.60
2022-11-29T09:18:09.290Z,5.60
2022-11-29T09:20:36.545Z,5.60
2022-11-29T09:23:03.682Z,5.60
2022-11-29T09:25:30.836Z,5.60
2022-11-29T09:28:01.413Z,5.60
2022-11-29T09:30:32.104Z,5.60
2022-11-29T09:33:05.298Z,5.60
2022-11-29T09:35:33.656Z,5.60
2022-11-29T09:38:01.032Z,5.60
2022-11-29T09:40:37.551Z,5.60
2022-11-29T09:43:20.326Z,5.60
2022-11-29T09:45:52.270Z,5.60
2022-11-29T09:48:33.255Z,5.60
2022-11-29T09:51:27.433Z,5.60
2022-11-29T09:54:00.573Z,5.60
2022-11-29T09:56:41.405Z,5.60
2022-11-29T09:59:27.524Z,5.60
2022-11-29T10:02:06.192Z,5.60
2022-11-29T10:04:40.892Z,5.60
2022-11-29T10:07:23.988Z,5.60
2022-11-29T10:10:03.110Z,5.60
2022-11-29T10:12:44.522Z,5.60
2022-11-29T10:15:25.426Z,5.60
2022-11-29T10:18:04.689Z,5.60
2022-11-29T10:20:40.640Z,5.60
2022-11-29T10:23:36.804Z,5.60
2022-11-29T10:26:08.846Z,5.60
2022-11-29T10:28:37.571Z,5.60
2022-11-29T10:31:16.799Z,5.60
2022-11-29T10:33:45.351Z,5.70
2022-11-29T10:36:46.470Z,5.60
2022-11-29T10:39:42.253Z,5.60
2022-11-29T10:42:36.161Z,5.60
2022-11-29T10:45:05.502Z,5.70
2022-11-29T10:47:33.030Z,5.70
2022-11-29T10:50:00.233Z,5.60
2022-11-29T10:52:27.394Z,5.70
2022-11-29T10:54:58.672Z,5.70
2022-11-29T10:57:25.903Z,5.60
2022-11-29T11:00:11.918Z,5.60
2022-11-29T11:02:39.319Z,5.60
2022-11-29T11:05:18.941Z,5.60
2022-11-29T11:07:55.665Z,5.60
2022-11-29T11:10:27.800Z,5.60
2022-11-29T11:13:03.567Z,5.60
2022-11-29T11:15:32.667Z,5.70
2022-11-29T11:18:04.026Z,5.70
2022-11-29T11:20:33.458Z,5.60
2022-11-29T11:23:22.788Z,5.70
2022-11-29T11:26:02.362Z,5.70
2022-11-29T11:28:42.535Z,5.70
2022-11-29T11:31:11.906Z,5.70
2022-11-29T11:33:41.487Z,5.60
2022-11-29T11:36:14.780Z,5.70
2022-11-29T11:39:09.784Z,5.70
2022-11-29T11:41:59.710Z,5.70
2022-11-29T11:44:49.790Z,5.70
2022-11-29T11:47:31.714Z,5.70
2022-11-29T11:50:04.500Z,5.70
2022-11-29T11:52:40.137Z,5.70
2022-11-29T11:55:30.340Z,5.70
2022-11-29T11:58:16.243Z,5.70
2022-11-29T12:01:06.573Z,5.70
2022-11-29T12:04:26.462Z,5.70
2022-11-29T12:07:03.099Z,5.70
2022-11-29T12:09:51.607Z,5.70
2022-11-29T12:12:37.269Z,5.70
2022-11-29T12:15:20.891Z,5.70
2022-11-29T12:17:50.989Z,5.70
2022-11-29T12:20:41.148Z,5.70
2022-11-29T12:23:17.101Z,5.70
2022-11-29T12:26:48.836Z,5.70
2022-11-29T12:29:18.053Z,5.70
2022-11-29T12:32:03.663Z,5.80
2022-11-29T12:34:58.342Z,5.80
2022-11-29T12:37:49.562Z,5.70
2022-11-29T12:40:28.130Z,5.70
2022-11-29T12:43:11.749Z,5.70
2022-11-29T12:46:03.610Z,5.70
2022-11-29T12:48:50.034Z,5.70
2022-11-29T12:51:29.050Z,5.80
2022-11-29T12:54:26.145Z,5.70
2022-11-29T12:57:19.254Z,5.70
2022-11-29T13:00:07.618Z,5.80
2022-11-29T13:02:43.623Z,5.80
2022-11-29T13:05:19.807Z,5.80
2022-11-29T13:07:58.863Z,5.80
2022-11-29T13:10:38.436Z,5.80
2022-11-29T13:13:23.917Z,5.80
2022-11-29T13:16:03.114Z,5.80
2022-11-29T13:18:32.969Z,5.80
2022-11-29T13:21:42.039Z,5.80
2022-11-29T13:24:23.552Z,5.80
2022-11-29T13:26:51.876Z,5.80
2022-11-29T13:29:19.959Z,5.80
2022-11-29T13:31:47.863Z,5.80
2022-11-29T13:34:22.487Z,5.80
2022-11-29T13:37:24.099Z,5.80
2022-11-29T13:40:15.581Z,5.80
2022-11-29T13:43:08.367Z,5.80
2022-11-29T13:45:52.645Z,5.80
2022-11-29T13:48:28.937Z,5.80
2022-11-29T13:50:57.724Z,5.80
2022-11-29T13:53:30.788Z,5.80
2022-11-29T13:56:01.267Z,5.80
2022-11-29T13:58:28.439Z,5.80
2022-11-29T14:01:00.666Z,5.80
2022-11-29T14:03:31.410Z,5.80
2022-11-29T14:06:14.984Z,5.80
2022-11-29T14:09:17.991Z,5.80
2022-11-29T14:11:42.728Z,5.80
2022-11-29T14:14:22.930Z,5.80
2022-11-29T14:17:01.983Z,5.80
2022-11-29T14:19:33.425Z,5.80
2022-11-29T14:22:19.213Z,5.80
2022-11-29T14:25:00.997Z,5.80
2022-11-29T14:27:28.112Z,5.80
2022-11-29T14:29:55.415Z,5.80
2022-11-29T14:32:45.953Z,5.80
2022-11-29T14:35:20.371Z,5.80
2022-11-29T14:38:13.049Z,5.80
2022-11-29T14:40:52.886Z,5.80
2022-11-29T14:43:46.463Z,5.80
2022-11-29T14:46:16.668Z,5.80
2022-11-29T14:48:54.671Z,5.80
2022-11-29T14:51:26.778Z,5.80
2022-11-29T14:54:13.252Z,5.80
2022-11-29T14:56:45.628Z,5.80
2022-11-29T14:59:49.964Z,5.80
2022-11-29T15:02:20.259Z,5.80
2022-11-29T15:04:51.099Z,5.80
2022-11-29T15:07:25.169Z,5.80
2022-11-29T15:09:55.222Z,5.80
2022-11-29T15:12:27.504Z,5.80
2022-11-29T15:15:12.852Z,5.80
2022-11-29T15:18:12.138Z,5.80
2022-11-29T15:21:08.514Z,5.80
2022-11-29T15:23:42.837Z,5.80
2022-11-29T15:26:21.079Z,5.80
2022-11-29T15:28:48.168Z,5.80
2022-11-29T15:31:19.228Z,5.80
2022-11-29T15:33:57.320Z,5.80
2022-11-29T15:36:25.962Z,5.80
2022-11-29T15:38:55.859Z,5.80
2022-11-29T15:41:31.595Z,5.80
2022-11-29T15:44:01.848Z,5.80
2022-11-29T15:46:31.738Z,5.80
2022-11-29T15:49:24.454Z,5.80
2022-11-29T15:52:06.207Z,5.80
2022-11-29T15:54:39.092Z,5.80
2022-11-29T15:57:10.720Z,5.80
2022-11-29T15:59:46.311Z,5.80
2022-11-29T16:02:27.938Z,5.80
2022-11-29T16:05:03.087Z,5.80
2022-11-29T16:07:34.349Z,5.80
2022-11-29T16:10:14.580Z,5.80
2022-11-29T16:12:59.538Z,5.80
2022-11-29T16:15:38.911Z,5.80
2022-11-29T16:18:23.783Z,5.80
2022-11-29T16:21:01.990Z,5.80
2022-11-29T16:23:37.491Z,5.80
2022-11-29T16:26:22.582Z,5.80
2022-11-29T16:28:52.154Z,5.80
2022-11-29T16:31:34.208Z,5.80
2022-11-29T16:34:26.254Z,5.80
2022-11-29T16:37:12.113Z,5.80
2022-11-29T16:39:39.583Z,5.80
2022-11-29T16:42:30.145Z,5.80
2022-11-29T16:45:28.315Z,5.80
2022-11-29T16:47:58.996Z,5.80
2022-11-29T16:50:31.111Z,5.80
2022-11-29T16:53:37.527Z,5.80
2022-11-29T16:56:16.192Z,5.80
2022-11-29T16:59:17.169Z,5.80
2022-11-29T17:01:33.419Z,6.00
2022-11-29T17:04:00.957Z,6.10
2022-11-29T17:06:29.363Z,6.20
2022-11-29T17:08:58.532Z,6.20
2022-11-29T17:11:26.309Z,6.30
2022-11-29T17:13:53.788Z,6.40
2022-11-29T17:16:24.566Z,6.40
2022-11-29T17:18:54.954Z,6.50
2022-11-29T17:21:24.554Z,6.50
2022-11-29T17:23:52.649Z,6.50
2022-11-29T17:26:20.950Z,6.50
2022-11-29T17:28:49.772Z,6.50
2022-11-29T17:31:22.395Z,6.50
2022-11-29T17:33:50.073Z,6.60
2022-11-29T17:36:20.074Z,6.60
2022-11-29T17:38:47.949Z,6.40
2022-11-29T17:41:23.646Z,6.30
2022-11-29T17:43:52.464Z,6.20
2022-11-29T17:46:26.103Z,6.20
2022-11-29T17:48:54.026Z,6.20
2022-11-29T17:51:50.639Z,6.20
2022-11-29T17:54:11.344Z,6.10
2022-11-29T17:56:38.875Z,6.10
2022-11-29T17:59:06.301Z,6.10
2022-11-29T18:01:36.096Z,6.10
2022-11-29T18:04:05.580Z,6.10
2022-11-29T18:06:38.564Z,6.00
2022-11-29T18:09:08.596Z,6.00
2022-11-29T18:11:47.081Z,6.10
2022-11-29T18:14:20.935Z,6.00
2022-11-29T18:16:48.326Z,6.10
2022-11-29T18:19:21.705Z,6.00
2022-11-29T18:21:49.820Z,6.10
2022-11-29T18:24:17.413Z,6.00
2022-11-29T18:26:45.072Z,6.10
2022-11-29T18:29:12.469Z,6.00
2022-11-29T18:31:42.905Z,6.00
2022-11-29T18:34:11.829Z,6.00
2022-11-29T18:36:47.968Z,6.00
2022-11-29T18:39:19.729Z,6.00
2022-11-29T18:41:49.047Z,5.90
2022-11-29T18:44:18.305Z,6.00
2022-11-29T18:46:46.173Z,5.90
2022-11-29T18:49:16.214Z,5.90
2022-11-29T18:51:45.623Z,5.90
2022-11-29T18:54:14.789Z,5.90
2022-11-29T18:56:43.355Z,5.90
2022-11-29T18:59:17.199Z,5.90
2022-11-29T19:01:48.839Z,5.90
2022-11-29T19:04:18.336Z,5.90
2022-11-29T19:06:45.954Z,5.90
2022-11-29T19:09:18.633Z,5.90
2022-11-29T19:11:45.776Z,5.90
2022-11-29T19:14:13.424Z,5.90
2022-11-29T19:16:46.373Z,5.90
2022-11-29T19:19:18.788Z,5.90
2022-11-29T19:21:46.220Z,5.90
2022-11-29T19:24:16.930Z,5.90
2022-11-29T19:26:46.330Z,5.90
2022-11-29T19:29:14.516Z,6.10
2022-11-29T19:31:42.632Z,6.20
2022-11-29T19:34:10.041Z,6.30
2022-11-29T19:36:42.749Z,6.40
2022-11-29T19:39:12.393Z,6.50
2022-11-29T19:41:39.623Z,6.50
2022-11-29T19:44:07.982Z,6.60
2022-11-29T19:46:44.102Z,6.60
2022-11-29T19:49:12.167Z,6.70
2022-11-29T19:51:39.370Z,6.70
2022-11-29T19:54:08.238Z,6.70
2022-11-29T19:56:35.708Z,6.70
2022-11-29T19:59:03.020Z,6.80
2022-11-29T20:01:39.742Z,6.80
2022-11-29T20:04:09.083Z,6.80
2022-11-29T20:06:36.386Z,6.80
2022-11-29T20:09:04.011Z,6.80
2022-11-29T20:11:31.274Z,6.80
2022-11-29T20:14:00.556Z,6.90
2022-11-29T20:16:29.695Z,6.90
2022-11-29T20:18:59.280Z,6.90
2022-11-29T20:21:31.340Z,6.90
2022-11-29T20:24:01.153Z,6.90
2022-11-29T20:26:29.746Z,6.90
2022-11-29T20:28:56.949Z,6.90
2022-11-29T20:31:24.208Z,6.90
2022-11-29T20:33:53.473Z,6.90
2022-11-29T20:36:46.745Z,6.90
2022-11-29T20:39:29.085Z,6.90
2022-11-29T20:42:13.246Z,6.90
2022-11-29T20:44:58.500Z,6.90
2022-11-29T20:47:29.832Z,6.90
2022-11-29T20:49:58.003Z,6.90
2022-11-29T20:52:52.168Z,7.00
2022-11-29T20:55:19.530Z,7.00
2022-11-29T20:57:46.781Z,7.00
2022-11-29T21:00:16.208Z,7.00
2022-11-29T21:02:43.375Z,7.00
2022-11-29T21:05:10.886Z,6.90
2022-11-29T21:07:38.025Z,7.00
2022-11-29T21:10:05.992Z,7.00
2022-11-29T21:12:33.458Z,7.00
2022-11-29T21:15:01.440Z,7.00
2022-11-29T21:17:33.376Z,7.00
2022-11-29T21:20:01.777Z,7.00
2022-11-29T21:22:42.374Z,7.00
2022-11-29T21:25:45.253Z,7.00
2022-11-29T21:28:14.930Z,7.00
2022-11-29T21:30:43.618Z,7.00
2022-11-29T21:33:12.069Z,7.00
2022-11-29T21:35:40.046Z,7.00
2022-11-29T21:38:13.000Z,7.00
2022-11-29T21:40:40.213Z,7.00
2022-11-29T21:43:07.325Z,6.90
2022-11-29T21:45:34.441Z,7.00
2022-11-29T21:48:01.733Z,6.90
2022-11-29T21:50:28.822Z,6.90
2022-11-29T21:52:55.977Z,6.90
2022-11-29T21:55:23.143Z,6.90
2022-11-29T21:57:50.277Z,7.00
2022-11-29T22:00:17.882Z,6.90
2022-11-29T22:02:45.126Z,6.90
2022-11-29T22:05:12.350Z,6.90
2022-11-29T22:07:39.475Z,6.90
2022-11-29T22:10:13.323Z,6.90
2022-11-29T22:12:49.296Z,6.90
2022-11-29T22:15:24.107Z,6.90
2022-11-29T22:17:51.572Z,6.90
2022-11-29T22:20:18.860Z,6.90
2022-11-29T22:22:47.834Z,6.90
2022-11-29T22:25:15.850Z,6.90
2022-11-29T22:27:42.970Z,6.90
2022-11-29T22:30:10.514Z,6.90
2022-11-29T22:32:37.577Z,6.90
2022-11-29T22:35:04.946Z,6.90
2022-11-29T22:37:31.977Z,6.80
2022-11-29T22:39:59.088Z,6.90
2022-11-29T22:42:26.197Z,6.80
2022-11-29T22:44:53.295Z,6.90
2022-11-29T22:47:20.441Z,6.90
2022-11-29T22:49:49.302Z,6.80
2022-11-29T22:52:16.470Z,6.90
2022-11-29T22:54:43.768Z,6.90
2022-11-29T22:57:11.226Z,6.90
2022-11-29T22:59:38.369Z,6.90
2022-11-29T23:02:05.606Z,6.80
2022-11-29T23:04:32.840Z,6.90
2022-11-29T23:06:59.972Z,6.90
2022-11-29T23:09:27.007Z,6.90
2022-11-29T23:11:56.437Z,6.80
2022-11-29T23:14:24.070Z,6.80
2022-11-29T23:16:51.784Z,6.80
2022-11-29T23:19:19.223Z,6.80
2022-11-29T23:21:46.577Z,6.80
2022-11-29T23:24:15.248Z,6.80
2022-11-29T23:26:46.954Z,6.80
2022-11-29T23:29:16.820Z,6.80
2022-11-29T23:31:44.148Z,6.80
2022-11-29T23:34:12.483Z,6.80
2022-11-29T23:36:39.874Z,6.80
2022-11-29T23:39:07.643Z,6.80
2022-11-29T23:41:36.325Z,6.80
2022-11-29T23:44:05.391Z,6.80
2022-11-29T23:46:33.102Z,6.80
2022-11-29T23:49:00.236Z,6.80
2022-11-29T23:51:27.285Z,6.80
2022-11-29T23:53:54.842Z,6.80
2022-11-29T23:56:22.679Z,6.70
2022-11-29T23:58:49.989Z,6.80
